Airfield :
LOGIN :

Register | Disclaimer

   EN    FR    IT 

 










Legend :    VFR   Marginal VFR   IFR   Intensive IFR   Very Intensive IFR
Visi :
Ceiling :
>= 8 km
>= 3000ft
5 to 8 km
1000 to 3000 ft
1500m to 5 km
500 to 1000 ft
800 to 1500m
200 to 500 ft
< 800m
< 200 ft
Symbols :   Thunderstorms  Fog  Heavy snow  Heavy precipitations  Wind > 20 kt
SIGMETs :     Misc.  Thunderstorms  Icing  Turbulence  Mountain Waves  Volcanic Ashes







- Airport Elevation : 257 ft
- IATA code : MAN
- Download approach charts


EGCC - Manchester

CURRENT METAR :
  • 220350Z AUTO VRB02KT 9999 NCD 08/07 Q1018

EXPIRED METARs :
  • 220320Z AUTO VRB03KT 9999 NCD 08/07 Q1018
  • 220250Z AUTO VRB02KT 9999 NCD 08/06 Q1018
  • 220220Z AUTO VRB02KT 9999 NCD 08/07 Q1018
  • 220150Z AUTO VRB02KT 9999 NCD 08/07 Q1018
  • 220120Z AUTO VRB02KT 9999 NCD 08/07 Q1019

TAF TAF EGCC
Valid from the 22 at 00:00 until the 23 at 06:00 UTC


212257Z 2200/2306 18004KT 9999 FEW045
PROB30
TEMPO 2200/2209 9000
BECMG 2209/2212 18014KT
TEMPO 2212/2218 7000 RA
PROB30
TEMPO 2212/2218 19015G25KT
TEMPO 2218/2306 8000 -RADZ BKN008
PROB30
TEMPO 2222/2306 BKN004
ATIS : +44 161 499 2324
No reported NOTAMs for that airfield.



MET'MAP, your aeronautical weather chart ! - Copyright ORBIFLY December 2007 - Disclaimer

ORBIFLY MET'MAP TEAM :

Programming & Development : Alexandra Zaïnal
Concept & Development : Baudouin d'Aumeries
Co-Development & Prog : Marc-Olivier Méhu
Technical & hardware support : Manuel Goepfert

Contact : metmap@orbifly.com




SOURCES & CREDITS :

   NOAA